Time;durP1;ratioP1;P1;durP2;ratioP2;P2;SDS_P1;SDS_P2;PMS_P1;PMS_P2;Temp;Humidity;BMP_temperature;BMP_pressure;BME280_temperature;BME280_humidity;BME280_pressure;Samples;Min_cycle;Max_cycle;Signal;HPM_P1;HPM_P2
2023/05/08 00:02:07;;;;;;;;;;;;;;;8.85;66.40;96711.47;5095238;28;20361;-69
2023/05/08 00:04:34;;;;;;;;;;;;;;;8.73;67.04;96710.06;5095186;28;19987;-71
2023/05/08 00:07:01;;;;;;;;;;;;;;;8.69;67.80;96705.81;5095180;28;20362;-68
2023/05/08 00:09:27;;;;;;;;;;;;;;;8.56;68.15;96711.41;5095143;28;20368;-69
2023/05/08 00:11:54;;;;;;;;;;;;;;;8.59;68.36;96713.06;5095094;28;19977;-71
2023/05/08 00:14:22;;;;;;;;;;;;;;;8.55;68.49;96704.47;5094965;28;20265;-70
2023/05/08 00:16:50;;;;;;;;;;;;;;;8.52;68.67;96711.50;5095047;28;19963;-70
2023/05/08 00:19:16;;;;;;;;;;;;;;;8.33;68.20;96705.00;5094921;28;19927;-68
2023/05/08 00:21:43;;;;;;;;;;;;;;;8.31;69.00;96705.97;5094743;28;20053;-70
2023/05/08 00:24:10;;;;;;;;;;;;;;;8.21;69.32;96700.09;5094796;28;19920;-70
2023/05/08 00:26:37;;;;;;;;;;;;;;;8.19;69.90;96704.53;5094761;28;19920;-69
2023/05/08 00:29:04;;;;;;;;;;;;;;;8.18;70.08;96705.41;5094730;28;19967;-69
2023/05/08 00:31:32;;;;;;;;;;;;;;;8.13;70.26;96697.69;5094713;28;19945;-69
2023/05/08 00:33:59;;;;;;;;;;;;;;;8.15;70.22;96697.66;5094670;28;19967;-68
2023/05/08 00:36:26;;;;;;;;;;;;;;;8.16;70.00;96688.97;5094627;28;19924;-69
2023/05/08 00:38:53;;;;;;;;;;;;;;;8.14;70.21;96696.81;5094528;28;19927;-69
2023/05/08 00:41:20;;;;;;;;;;;;;;;8.17;69.71;96691.53;5093714;28;19920;-71
2023/05/08 00:43:47;;;;;;;;;;;;;;;8.15;69.91;96688.09;5094487;28;19981;-71
2023/05/08 00:46:14;;;;;;;;;;;;;;;8.08;70.76;96689.16;5094181;28;19993;-71
2023/05/08 00:48:42;;;;;;;;;;;;;;;8.03;70.75;96691.00;5094493;28;19920;-71
2023/05/08 00:51:10;;;;;;;;;;;;;;;8.06;71.27;96697.00;5094370;28;19973;-71
2023/05/08 00:53:39;;;;;;;;;;;;;;;8.07;71.22;96697.88;5094237;28;20331;-69
2023/05/08 00:56:06;;;;;;;;;;;;;;;8.11;71.49;96696.91;5094262;28;19924;-70
2023/05/08 00:58:34;;;;;;;;;;;;;;;8.13;71.66;96692.47;5094279;28;19927;-69
2023/05/08 01:01:02;;;;;;;;;;;;;;;8.18;71.50;96690.63;5094127;28;19927;-68
2023/05/08 01:03:29;;;;;;;;;;;;;;;8.18;71.65;96690.63;5094176;28;19919;-68
2023/05/08 01:05:58;;;;;;;;;;;;;;;8.23;71.86;96695.72;5093957;28;20292;-69
2023/05/08 01:08:25;;;;;;;;;;;;;;;8.25;71.83;96691.31;5094082;28;19952;-68
2023/05/08 01:10:57;;;;;;;;;;;;;;;8.28;71.67;96687.78;5094115;28;19959;-70
2023/05/08 01:13:29;;;;;;;;;;;;;;;8.29;71.28;96690.34;5093996;28;19927;-70
2023/05/08 01:16:01;;;;;;;;;;;;;;;8.30;71.06;96689.44;5094052;28;20324;-68
2023/05/08 01:18:38;;;;;;;;;;;;;;;8.25;71.24;96700.91;5093890;28;20365;-71
2023/05/08 01:21:12;;;;;;;;;;;;;;;8.23;71.28;96693.13;5093740;28;20332;-71
2023/05/08 01:23:59;;;;;;;;;;;;;;;8.23;70.86;96698.34;5093773;28;19920;-70
2023/05/08 01:26:47;;;;;;;;;;;;;;;8.09;71.17;96701.28;5090474;28;20385;-69
2023/05/08 01:29:37;;;;;;;;;;;;;;;7.99;71.43;96711.09;5093875;28;19973;-69
2023/05/08 01:32:09;;;;;;;;;;;;;;;7.95;70.83;96699.88;5093608;28;19967;-68
2023/05/08 01:34:40;;;;;;;;;;;;;;;7.87;71.33;96701.84;5093679;28;19923;-69
2023/05/08 01:37:11;;;;;;;;;;;;;;;7.78;71.25;96704.66;5093676;28;19920;-69
2023/05/08 01:39:43;;;;;;;;;;;;;;;7.73;72.25;96707.38;5093642;28;19959;-69
2023/05/08 01:42:16;;;;;;;;;;;;;;;7.68;72.03;96702.25;5093543;28;19965;-68
2023/05/08 01:44:47;;;;;;;;;;;;;;;7.65;72.05;96699.72;5093496;28;20361;-67
2023/05/08 01:47:17;;;;;;;;;;;;;;;7.58;71.52;96709.44;5093163;28;19927;-68
2023/05/08 01:49:46;;;;;;;;;;;;;;;7.63;71.89;96703.28;5093556;28;20022;-71
2023/05/08 01:52:17;;;;;;;;;;;;;;;7.61;71.71;96700.69;5095716;28;19981;-68
2023/05/08 01:54:49;;;;;;;;;;;;;;;7.62;71.94;96705.03;5097724;28;19966;-69
2023/05/08 01:57:16;;;;;;;;;;;;;;;7.62;71.95;96704.16;5097606;28;19923;-68
2023/05/08 01:59:44;;;;;;;;;;;;;;;7.58;71.69;96703.38;5097666;28;19999;-70
2023/05/08 02:02:12;;;;;;;;;;;;;;;7.51;71.54;96694.88;5097574;28;19959;-68
2023/05/08 02:04:41;;;;;;;;;;;;;;;7.52;71.60;96691.34;5097551;28;19966;-70
2023/05/08 02:07:09;;;;;;;;;;;;;;;7.51;71.58;96694.00;5097500;28;20011;-69
2023/05/08 02:09:37;;;;;;;;;;;;;;;7.48;71.53;96701.88;5097495;28;19966;-69
2023/05/08 02:12:04;;;;;;;;;;;;;;;7.43;71.44;96697.63;5097508;28;19924;-68
2023/05/08 02:14:32;;;;;;;;;;;;;;;7.36;71.71;96693.47;5097476;28;19926;-69
2023/05/08 02:17:00;;;;;;;;;;;;;;;7.32;71.31;96695.28;5097426;28;19924;-65
2023/05/08 02:19:28;;;;;;;;;;;;;;;7.23;71.39;96690.28;5097200;28;20273;-68
2023/05/08 02:21:58;;;;;;;;;;;;;;;7.14;71.90;96687.88;5097210;28;19978;-68
2023/05/08 02:24:25;;;;;;;;;;;;;;;7.11;72.30;96683.63;5097073;28;19920;-70
2023/05/08 02:26:53;;;;;;;;;;;;;;;7.08;72.35;96691.47;5097204;28;19920;-71
2023/05/08 02:29:21;;;;;;;;;;;;;;;7.02;72.41;96694.22;5097202;28;19973;-70
2023/05/08 02:31:49;;;;;;;;;;;;;;;6.95;72.05;96690.88;5097144;28;20002;-68
2023/05/08 02:34:16;;;;;;;;;;;;;;;6.92;72.65;96694.41;5097039;28;19927;-71
2023/05/08 02:36:43;;;;;;;;;;;;;;;6.93;72.83;96690.06;5096846;28;19920;-70
2023/05/08 02:39:13;;;;;;;;;;;;;;;6.89;72.82;96689.25;5096884;28;19988;-71
2023/05/08 02:41:41;;;;;;;;;;;;;;;6.81;72.78;96686.81;5096902;28;19920;-67
2023/05/08 02:44:08;;;;;;;;;;;;;;;6.70;72.93;96679.25;5096678;28;19963;-69
2023/05/08 02:46:39;;;;;;;;;;;;;;;6.65;73.49;96675.03;5096653;28;19967;-70
2023/05/08 02:49:08;;;;;;;;;;;;;;;6.68;73.62;96673.22;5096672;28;20015;-69
2023/05/08 02:51:39;;;;;;;;;;;;;;;6.70;73.48;96675.78;5096704;28;19920;-71
2023/05/08 02:54:09;;;;;;;;;;;;;;;6.64;73.34;96671.56;5096732;28;20011;-67
2023/05/08 02:56:39;;;;;;;;;;;;;;;6.50;73.53;96677.03;5096574;28;20247;-70
2023/05/08 02:59:13;;;;;;;;;;;;;;;6.47;73.57;96674.50;5096577;28;19919;-69
2023/05/08 03:01:44;;;;;;;;;;;;;;;6.43;73.86;96673.72;5096304;28;20277;-67
2023/05/08 03:04:13;;;;;;;;;;;;;;;6.50;73.93;96671.84;5095663;28;19920;-69
2023/05/08 03:06:41;;;;;;;;;;;;;;;6.54;73.98;96676.06;5096425;28;19920;-70
2023/05/08 03:09:12;;;;;;;;;;;;;;;6.61;74.03;96673.38;5096395;28;20337;-69
2023/05/08 03:11:41;;;;;;;;;;;;;;;6.61;73.46;96675.97;5096223;28;19934;-66
2023/05/08 03:14:11;;;;;;;;;;;;;;;6.62;73.58;96675.09;5096274;28;19920;-67
2023/05/08 03:16:39;;;;;;;;;;;;;;;6.54;73.71;96670.03;5096230;28;19920;-66
2023/05/08 03:19:08;;;;;;;;;;;;;;;6.50;73.98;96668.41;5096176;28;20412;-67
2023/05/08 03:21:36;;;;;;;;;;;;;;;6.52;74.02;96667.47;5096072;28;20350;-68
2023/05/08 03:24:04;;;;;;;;;;;;;;;6.51;74.25;96673.56;5096129;28;19923;-67
2023/05/08 03:26:30;;;;;;;;;;;;;;;6.51;74.09;96680.50;5096008;28;19930;-68
2023/05/08 03:28:59;;;;;;;;;;;;;;;6.49;74.35;96670.13;5096019;28;20015;-70
2023/05/08 03:31:27;;;;;;;;;;;;;;;6.56;74.71;96679.50;5095946;28;19920;-67
2023/05/08 03:33:54;;;;;;;;;;;;;;;6.53;74.55;96684.78;5095971;28;19927;-69
2023/05/08 03:36:21;;;;;;;;;;;;;;;6.55;75.14;96679.53;5095753;28;19941;-70
2023/05/08 03:38:48;;;;;;;;;;;;;;;6.61;74.45;96688.97;5095755;28;20335;-69
2023/05/08 03:41:15;;;;;;;;;;;;;;;6.66;74.61;96692.34;5095615;28;19923;-67
2023/05/08 03:43:43;;;;;;;;;;;;;;;6.75;74.74;96699.97;5095610;28;19920;-67
2023/05/08 03:46:12;;;;;;;;;;;;;;;6.97;74.90;96704.72;5095393;28;20018;-68
2023/05/08 03:48:40;;;;;;;;;;;;;;;7.25;74.19;96705.88;5095751;28;19923;-70
2023/05/08 03:51:07;;;;;;;;;;;;;;;7.56;73.12;96711.22;5095453;28;19919;-69
2023/05/08 03:53:33;;;;;;;;;;;;;;;8.01;72.32;96703.25;5095408;28;20292;-67
2023/05/08 03:56:00;;;;;;;;;;;;;;;8.45;70.15;96706.44;5095362;28;19998;-68
2023/05/08 03:58:31;;;;;;;;;;;;;;;9.01;68.92;96700.59;5095384;28;19924;-69
2023/05/08 04:01:01;;;;;;;;;;;;;;;9.58;66.85;96701.47;5095376;28;19928;-70
2023/05/08 04:03:38;;;;;;;;;;;;;;;10.11;65.12;96699.78;5095200;28;19924;-68
2023/05/08 04:06:09;;;;;;;;;;;;;;;10.64;63.61;96696.31;5095308;28;19927;-67
2023/05/08 04:08:42;;;;;;;;;;;;;;;11.11;60.86;96700.72;5095313;28;19943;-70
2023/05/08 04:11:12;;;;;;;;;;;;;;;11.57;59.76;96698.09;5095123;28;19919;-70
2023/05/08 04:13:42;;;;;;;;;;;;;;;11.95;58.80;96707.09;5095178;28;19920;-69
2023/05/08 04:16:12;;;;;;;;;;;;;;;12.34;57.01;96705.53;5093964;28;19920;-69
2023/05/08 04:18:44;;;;;;;;;;;;;;;12.63;56.19;96708.66;5094917;28;19942;-67
2023/05/08 04:21:11;;;;;;;;;;;;;;;12.97;55.86;96711.53;5094887;28;19920;-69
2023/05/08 04:23:39;;;;;;;;;;;;;;;13.21;55.21;96703.47;5094768;28;20398;-70
2023/05/08 04:26:07;;;;;;;;;;;;;;;13.56;54.24;96710.66;5094853;28;20365;-69
2023/05/08 04:28:34;;;;;;;;;;;;;;;13.88;55.02;96703.84;5094877;28;19927;-68
2023/05/08 04:31:02;;;;;;;;;;;;;;;14.20;54.19;96700.56;5094669;28;19926;-67
2023/05/08 04:33:30;;;;;;;;;;;;;;;14.51;53.96;96704.25;5094634;28;20369;-69
2023/05/08 04:36:01;;;;;;;;;;;;;;;14.93;50.80;96705.72;5094678;28;19920;-69
2023/05/08 04:38:28;;;;;;;;;;;;;;;15.32;51.95;96716.81;5094619;28;20550;-67
2023/05/08 04:40:55;;;;;;;;;;;;;;;15.51;51.63;96700.84;5094541;28;19973;-69
2023/05/08 04:43:22;;;;;;;;;;;;;;;15.81;50.25;96710.59;5094385;28;20030;-69
2023/05/08 04:45:49;;;;;;;;;;;;;;;16.03;50.71;96712.03;5094184;28;19927;-67
2023/05/08 04:48:16;;;;;;;;;;;;;;;16.18;48.53;96715.59;5094429;28;19920;-67
2023/05/08 04:50:42;;;;;;;;;;;;;;;16.33;46.74;96708.56;5094390;28;19967;-67
2023/05/08 04:53:11;;;;;;;;;;;;;;;16.66;47.57;96704.00;5094539;28;19924;-69
2023/05/08 04:55:37;;;;;;;;;;;;;;;17.07;47.13;96710.41;5094373;28;19971;-68
2023/05/08 04:58:04;;;;;;;;;;;;;;;17.43;45.70;96710.84;5094239;28;19966;-70
2023/05/08 05:00:31;;;;;;;;;;;;;;;17.70;45.08;96698.56;5094308;28;20278;-70
2023/05/08 05:02:58;;;;;;;;;;;;;;;17.96;45.20;96706.59;5093988;28;19920;-68
2023/05/08 05:05:25;;;;;;;;;;;;;;;18.20;43.17;96706.81;5094193;28;19920;-68
2023/05/08 05:07:52;;;;;;;;;;;;;;;18.43;39.71;96699.16;5094041;28;19936;-69
2023/05/08 05:10:20;;;;;;;;;;;;;;;18.57;38.54;96695.53;5094160;28;19975;-69
2023/05/08 05:12:47;;;;;;;;;;;;;;;18.74;37.76;96699.69;5094263;28;20010;-69
2023/05/08 05:15:14;;;;;;;;;;;;;;;18.89;40.59;96696.94;5094021;28;19920;-68
2023/05/08 05:17:41;;;;;;;;;;;;;;;19.09;44.52;96695.59;5093872;28;19973;-68
2023/05/08 05:20:08;;;;;;;;;;;;;;;19.15;42.67;96702.25;5093932;28;20339;-70
2023/05/08 05:22:35;;;;;;;;;;;;;;;19.38;42.55;96697.13;5093789;28;20440;-70
2023/05/08 05:25:02;;;;;;;;;;;;;;;19.66;43.13;96688.00;5093927;28;19966;-69
2023/05/08 05:27:31;;;;;;;;;;;;;;;19.92;41.54;96693.22;5093505;28;20342;-69
2023/05/08 05:29:58;;;;;;;;;;;;;;;20.19;40.26;96693.94;5093833;28;19920;-69
2023/05/08 05:32:25;;;;;;;;;;;;;;;20.31;37.60;96682.41;5093700;28;20373;-69
2023/05/08 05:34:52;;;;;;;;;;;;;;;20.47;39.04;96689.22;5093855;28;19920;-69
2023/05/08 05:37:19;;;;;;;;;;;;;;;20.78;38.74;96688.66;5093716;28;20343;-69
2023/05/08 05:39:47;;;;;;;;;;;;;;;21.14;38.36;96689.47;5093654;28;19920;-69
2023/05/08 05:42:14;;;;;;;;;;;;;;;21.37;37.46;96691.25;5093443;28;19930;-69
2023/05/08 05:44:42;;;;;;;;;;;;;;;21.48;36.40;96688.56;5093534;28;19920;-69
2023/05/08 05:47:11;;;;;;;;;;;;;;;21.46;34.51;96691.34;5093427;28;19924;-69
2023/05/08 05:49:41;;;;;;;;;;;;;;;21.56;33.77;96686.16;5093532;28;19927;-69
2023/05/08 05:52:08;;;;;;;;;;;;;;;21.69;32.10;96688.66;5093526;28;20372;-69
2023/05/08 05:54:35;;;;;;;;;;;;;;;21.91;31.56;96686.09;5093528;28;20302;-69
2023/05/08 05:57:02;;;;;;;;;;;;;;;21.99;29.27;96693.44;5093695;28;19965;-70
2023/05/08 05:59:29;;;;;;;;;;;;;;;21.95;30.54;96696.34;5093431;28;19920;-69
2023/05/08 06:01:58;;;;;;;;;;;;;;;22.12;29.15;96688.78;5093493;28;19920;-69
2023/05/08 06:04:25;;;;;;;;;;;;;;;21.98;29.25;96689.94;5093525;28;19928;-69
2023/05/08 06:06:53;;;;;;;;;;;;;;;21.92;29.20;96685.97;5093488;28;19928;-69
2023/05/08 06:09:20;;;;;;;;;;;;;;;21.96;29.64;96684.75;5093301;28;19924;-69
2023/05/08 06:11:47;;;;;;;;;;;;;;;21.92;29.30;96685.13;5093348;28;19924;-69
2023/05/08 06:14:14;;;;;;;;;;;;;;;22.12;30.92;96685.28;5093394;28;20384;-69
2023/05/08 06:16:43;;;;;;;;;;;;;;;22.45;29.62;96686.09;5093298;28;19920;-70
2023/05/08 06:19:14;;;;;;;;;;;;;;;22.65;29.70;96687.09;5093254;28;19920;-70
2023/05/08 06:21:41;;;;;;;;;;;;;;;22.71;28.63;96673.25;5093283;28;19920;-70
2023/05/08 06:24:08;;;;;;;;;;;;;;;22.66;27.77;96680.78;5093266;28;19963;-70
2023/05/08 06:26:35;;;;;;;;;;;;;;;22.68;27.38;96672.66;5093246;28;19920;-70
2023/05/08 06:29:02;;;;;;;;;;;;;;;22.67;28.55;96671.81;5093458;28;19920;-70
2023/05/08 06:31:29;;;;;;;;;;;;;;;22.52;28.54;96673.94;5093451;28;20011;-69
2023/05/08 06:33:58;;;;;;;;;;;;;;;22.33;30.27;96666.66;5093140;28;19949;-69
2023/05/08 06:36:28;;;;;;;;;;;;;;;22.54;29.23;96671.13;5093433;28;19924;-69
2023/05/08 06:38:55;;;;;;;;;;;;;;;22.51;29.08;96666.09;5094669;28;19920;-69
2023/05/08 06:41:23;;;;;;;;;;;;;;;22.57;29.49;96669.09;5096863;28;19924;-70
2023/05/08 06:43:50;;;;;;;;;;;;;;;22.93;28.65;96665.19;5096680;28;19926;-70
2023/05/08 06:46:20;;;;;;;;;;;;;;;23.17;27.51;96662.22;5096478;28;19924;-69
2023/05/08 06:48:48;;;;;;;;;;;;;;;23.29;28.36;96670.13;5096766;28;19926;-69
2023/05/08 06:51:15;;;;;;;;;;;;;;;23.20;29.59;96666.44;5096727;28;19920;-69
2023/05/08 06:53:44;;;;;;;;;;;;;;;23.11;28.92;96668.09;5096515;28;19955;-69
2023/05/08 06:56:11;;;;;;;;;;;;;;;23.23;28.18;96667.03;5096570;28;19978;-70
2023/05/08 06:58:38;;;;;;;;;;;;;;;23.62;28.81;96659.31;5096539;28;20030;-69
2023/05/08 07:01:05;;;;;;;;;;;;;;;23.95;27.84;96662.53;5096393;28;19927;-69
2023/05/08 07:03:32;;;;;;;;;;;;;;;23.93;28.93;96664.53;5096395;28;20023;-69
2023/05/08 07:05:59;;;;;;;;;;;;;;;24.14;27.26;96659.06;5096454;28;19923;-69
2023/05/08 07:08:27;;;;;;;;;;;;;;;24.08;27.42;96663.13;5096416;28;19920;-69
2023/05/08 07:10:56;;;;;;;;;;;;;;;23.82;29.51;96657.50;5096236;28;19946;-69
2023/05/08 07:13:23;;;;;;;;;;;;;;;23.49;29.23;96652.38;5096227;28;19927;-69
2023/05/08 07:15:51;;;;;;;;;;;;;;;23.58;28.12;96651.56;5096291;28;19920;-69
2023/05/08 07:18:17;;;;;;;;;;;;;;;23.64;28.32;96649.31;5096246;28;19977;-69
2023/05/08 07:20:44;;;;;;;;;;;;;;;24.05;29.49;96651.88;5096121;28;19927;-69
2023/05/08 07:23:11;;;;;;;;;;;;;;;24.12;28.50;96653.00;5096040;28;19927;-69
2023/05/08 07:25:38;;;;;;;;;;;;;;;24.06;29.32;96640.22;5095998;28;19924;-69
2023/05/08 07:28:07;;;;;;;;;;;;;;;24.26;29.07;96642.91;5096085;28;19923;-69
2023/05/08 07:30:34;;;;;;;;;;;;;;;24.59;27.88;96651.44;5095969;28;19923;-69
2023/05/08 07:33:00;;;;;;;;;;;;;;;24.73;28.24;96640.28;5095875;28;19920;-69
2023/05/08 07:35:28;;;;;;;;;;;;;;;24.66;29.13;96646.34;5096007;28;20297;-69
2023/05/08 07:37:55;;;;;;;;;;;;;;;24.76;27.90;96646.31;5095778;28;19920;-69
2023/05/08 07:40:22;;;;;;;;;;;;;;;24.50;28.76;96647.78;5095803;28;19943;-69
2023/05/08 07:42:49;;;;;;;;;;;;;;;24.40;30.01;96645.13;5095677;28;19920;-69
2023/05/08 07:45:18;;;;;;;;;;;;;;;24.30;28.12;96647.81;5095743;28;19920;-69
2023/05/08 07:47:51;;;;;;;;;;;;;;;24.25;29.92;96644.72;5095602;28;20377;-69
2023/05/08 07:50:19;;;;;;;;;;;;;;;24.36;29.59;96641.06;5095287;28;19930;-69
2023/05/08 07:52:46;;;;;;;;;;;;;;;24.22;29.35;96653.88;5095517;28;19920;-69
2023/05/08 07:55:13;;;;;;;;;;;;;;;24.14;29.98;96643.03;5095434;28;20331;-69
2023/05/08 07:57:40;;;;;;;;;;;;;;;24.41;29.60;96643.31;5095454;28;20344;-69
2023/05/08 08:00:08;;;;;;;;;;;;;;;24.58;28.89;96642.56;5095475;28;19920;-69
2023/05/08 08:02:37;;;;;;;;;;;;;;;24.28;30.45;96641.75;5095292;28;19923;-69
2023/05/08 08:05:04;;;;;;;;;;;;;;;24.28;28.96;96636.44;5095253;28;19926;-69
2023/05/08 08:07:31;;;;;;;;;;;;;;;24.47;30.04;96632.88;5095197;28;19986;-68
2023/05/08 08:09:58;;;;;;;;;;;;;;;24.39;31.08;96632.75;5095079;28;19923;-68
2023/05/08 08:12:25;;;;;;;;;;;;;;;24.18;30.18;96630.25;5095110;28;19920;-69
2023/05/08 08:14:52;;;;;;;;;;;;;;;24.02;31.37;96636.97;5095191;28;19920;-68
2023/05/08 08:17:19;;;;;;;;;;;;;;;23.88;31.04;96648.06;5095023;28;20364;-69
2023/05/08 08:19:47;;;;;;;;;;;;;;;24.17;29.85;96645.41;5095017;28;19920;-68
2023/05/08 08:22:14;;;;;;;;;;;;;;;24.10;30.83;96638.94;5094933;28;20357;-69
2023/05/08 08:24:41;;;;;;;;;;;;;;;24.32;31.38;96632.47;5094943;28;19971;-69
2023/05/08 08:27:09;;;;;;;;;;;;;;;24.46;30.88;96635.69;5094975;28;19920;-69
2023/05/08 08:29:36;;;;;;;;;;;;;;;24.14;28.84;96627.00;5094746;28;20011;-68
2023/05/08 08:32:03;;;;;;;;;;;;;;;24.25;30.62;96623.34;5094715;28;20258;-68
2023/05/08 08:34:30;;;;;;;;;;;;;;;24.38;30.89;96627.56;5094566;28;19920;-68
2023/05/08 08:36:58;;;;;;;;;;;;;;;24.53;30.15;96619.94;5094636;28;19919;-68
2023/05/08 08:39:25;;;;;;;;;;;;;;;24.67;30.11;96613.25;5094691;28;19950;-68
2023/05/08 08:41:52;;;;;;;;;;;;;;;24.36;28.24;96619.69;5094537;28;19927;-69
2023/05/08 08:44:19;;;;;;;;;;;;;;;24.45;30.55;96615.28;5094301;28;19931;-69
2023/05/08 08:46:50;;;;;;;;;;;;;;;24.19;31.64;96611.41;5094216;28;19920;-68
2023/05/08 08:49:18;;;;;;;;;;;;;;;24.42;30.67;96616.44;5094592;28;19942;-69
2023/05/08 08:51:49;;;;;;;;;;;;;;;24.60;31.66;96610.34;5094335;28;19963;-69
2023/05/08 08:54:20;;;;;;;;;;;;;;;24.96;29.99;96613.19;5094463;28;19920;-68
2023/05/08 08:56:49;;;;;;;;;;;;;;;24.84;30.76;96617.00;5094452;28;19920;-69
2023/05/08 08:59:16;;;;;;;;;;;;;;;24.79;31.76;96606.75;5094240;28;19920;-68
2023/05/08 09:01:45;;;;;;;;;;;;;;;24.77;30.09;96607.91;5093813;28;19923;-69
2023/05/08 09:04:11;;;;;;;;;;;;;;;24.63;29.93;96609.19;5094105;28;19927;-69
2023/05/08 09:06:39;;;;;;;;;;;;;;;24.53;31.33;96601.22;5094036;28;20003;-69
2023/05/08 09:09:07;;;;;;;;;;;;;;;24.48;33.10;96602.47;5094073;28;20285;-69
2023/05/08 09:11:36;;;;;;;;;;;;;;;24.45;31.01;96599.25;5094078;28;19920;-68
2023/05/08 09:14:03;;;;;;;;;;;;;;;24.63;30.88;96599.34;5094003;28;19920;-69
2023/05/08 09:16:30;;;;;;;;;;;;;;;24.65;31.59;96601.88;5094224;28;20361;-68
2023/05/08 09:18:57;;;;;;;;;;;;;;;24.59;31.39;96597.97;5093895;28;19920;-69
2023/05/08 09:21:24;;;;;;;;;;;;;;;24.46;32.42;96596.44;5093968;28;20012;-69
2023/05/08 09:23:58;;;;;;;;;;;;;;;24.31;32.60;96592.53;5093774;28;19973;-68
2023/05/08 09:26:31;;;;;;;;;;;;;;;24.43;32.43;96583.38;5093904;28;20315;-68
2023/05/08 09:29:12;;;;;;;;;;;;;;;24.56;29.53;96585.72;5093753;28;19920;-69
2023/05/08 09:31:41;;;;;;;;;;;;;;;24.64;32.74;96576.13;5091423;28;20010;-68
2023/05/08 09:34:09;;;;;;;;;;;;;;;24.43;29.43;96570.00;5093774;28;19967;-68
2023/05/08 09:36:36;;;;;;;;;;;;;;;24.51;32.69;96573.78;5093764;28;20011;-68
2023/05/08 09:39:03;;;;;;;;;;;;;;;24.35;33.79;96570.72;5093845;28;19973;-68
2023/05/08 09:41:30;;;;;;;;;;;;;;;24.23;32.92;96572.72;5093694;28;19974;-68
2023/05/08 09:44:01;;;;;;;;;;;;;;;24.08;33.05;96574.97;5093515;28;20019;-68
2023/05/08 09:46:28;;;;;;;;;;;;;;;24.20;33.45;96570.34;5093427;28;19920;-68
2023/05/08 09:48:58;;;;;;;;;;;;;;;24.47;32.22;96563.38;5093686;28;19986;-68
2023/05/08 09:51:26;;;;;;;;;;;;;;;24.50;33.37;96561.41;5093631;28;19974;-68
2023/05/08 09:53:53;;;;;;;;;;;;;;;24.41;34.09;96552.44;5093565;28;19920;-68
2023/05/08 09:56:30;;;;;;;;;;;;;;;24.42;30.56;96548.78;5093565;28;19924;-69
2023/05/08 09:58:57;;;;;;;;;;;;;;;24.25;32.54;96556.53;5093473;28;20040;-68
2023/05/08 10:01:31;;;;;;;;;;;;;;;24.28;32.41;96542.91;5093357;28;19920;-69
2023/05/08 10:04:00;;;;;;;;;;;;;;;24.10;31.20;96535.59;5093444;28;19920;-68
2023/05/08 10:06:28;;;;;;;;;;;;;;;24.13;32.69;96541.63;5093579;28;19942;-69
2023/05/08 10:09:11;;;;;;;;;;;;;;;24.30;31.23;96530.25;5093293;28;19927;-69
2023/05/08 10:11:38;;;;;;;;;;;;;;;23.91;34.67;96527.63;5093383;28;19978;-69
2023/05/08 10:14:05;;;;;;;;;;;;;;;23.90;34.64;96524.09;5096993;28;19920;-68
2023/05/08 10:16:36;;;;;;;;;;;;;;;23.97;35.17;96517.22;5097371;28;19920;-68
2023/05/08 10:19:10;;;;;;;;;;;;;;;24.16;34.42;96517.31;5097332;28;19973;-68
2023/05/08 10:21:38;;;;;;;;;;;;;;;24.09;34.93;96514.38;5097411;28;20277;-68
2023/05/08 10:24:05;;;;;;;;;;;;;;;24.27;34.05;96513.66;5097176;28;19974;-68
2023/05/08 10:26:34;;;;;;;;;;;;;;;24.26;35.65;96511.97;5097305;28;19919;-68
2023/05/08 10:29:07;;;;;;;;;;;;;;;24.20;34.89;96518.75;5097205;28;19977;-68
2023/05/08 10:31:35;;;;;;;;;;;;;;;24.04;36.00;96516.63;5097139;28;19920;-68
2023/05/08 10:34:03;;;;;;;;;;;;;;;23.93;34.37;96512.31;5097198;28;19942;-68
2023/05/08 10:36:32;;;;;;;;;;;;;;;24.08;36.71;96515.38;5097195;28;20011;-69
2023/05/08 10:38:59;;;;;;;;;;;;;;;24.16;34.01;96510.16;5096966;28;20345;-68
2023/05/08 10:41:26;;;;;;;;;;;;;;;24.19;34.65;96517.03;5097010;28;19927;-68
2023/05/08 10:43:54;;;;;;;;;;;;;;;24.21;35.33;96518.59;5096895;28;19971;-68
2023/05/08 10:46:25;;;;;;;;;;;;;;;24.24;36.17;96504.09;5096590;28;20254;-68
2023/05/08 10:48:56;;;;;;;;;;;;;;;24.18;36.20;96512.69;5096893;28;19919;-68
2023/05/08 10:51:27;;;;;;;;;;;;;;;24.04;36.33;96511.28;5096781;28;19920;-68
2023/05/08 10:54:00;;;;;;;;;;;;;;;23.94;36.55;96520.19;5096772;28;20011;-68
2023/05/08 10:56:27;;;;;;;;;;;;;;;24.09;36.17;96507.22;5096742;28;19920;-68
2023/05/08 10:58:56;;;;;;;;;;;;;;;24.08;37.66;96510.03;5096641;28;19963;-68
2023/05/08 11:01:24;;;;;;;;;;;;;;;24.15;36.98;96507.63;5096686;28;20018;-68
2023/05/08 11:03:51;;;;;;;;;;;;;;;24.18;37.20;96497.50;5096286;28;19919;-68
2023/05/08 11:06:18;;;;;;;;;;;;;;;24.12;36.61;96500.72;5096267;28;19927;-68
2023/05/08 11:08:49;;;;;;;;;;;;;;;24.19;36.99;96493.00;5096347;28;19920;-68
2023/05/08 11:11:22;;;;;;;;;;;;;;;24.34;34.90;96496.03;5096394;28;19927;-68
2023/05/08 11:13:52;;;;;;;;;;;;;;;24.39;35.50;96493.78;5096247;28;19924;-68
2023/05/08 11:16:39;;;;;;;;;;;;;;;24.10;36.91;96494.69;5096280;28;19927;-68
2023/05/08 11:19:20;;;;;;;;;;;;;;;24.01;36.18;96493.72;5096107;28;19920;-68
2023/05/08 11:22:06;;;;;;;;;;;;;;;23.90;37.37;96492.03;5093583;28;19920;-68
2023/05/08 11:24:35;;;;;;;;;;;;;;;23.80;39.49;96484.06;5095449;28;19920;-68
2023/05/08 11:27:04;;;;;;;;;;;;;;;24.07;37.29;96489.63;5096114;28;20329;-68
2023/05/08 11:29:35;;;;;;;;;;;;;;;23.86;34.60;96485.31;5095972;28;19924;-68
2023/05/08 11:32:02;;;;;;;;;;;;;;;23.56;34.79;96480.03;5095825;28;19973;-68
2023/05/08 11:34:51;;;;;;;;;;;;;;;23.65;38.09;96474.81;5096062;28;19920;-68
2023/05/08 11:37:20;;;;;;;;;;;;;;;23.97;37.67;96474.50;5091719;28;19919;-68
2023/05/08 11:39:48;;;;;;;;;;;;;;;24.21;37.25;96470.50;5095717;28;20281;-68
2023/05/08 11:42:39;;;;;;;;;;;;;;;24.33;37.52;96467.66;5095746;28;20365;-68
2023/05/08 11:45:06;;;;;;;;;;;;;;;24.62;37.24;96474.66;5095193;28;20350;-68
2023/05/08 11:47:38;;;;;;;;;;;;;;;24.68;36.23;96473.25;5095424;28;19973;-68
2023/05/08 11:50:05;;;;;;;;;;;;;;;24.53;35.00;96471.06;5095495;28;19927;-68
2023/05/08 11:52:33;;;;;;;;;;;;;;;24.60;34.19;96465.97;5095554;28;19924;-68
2023/05/08 11:55:02;;;;;;;;;;;;;;;24.38;35.12;96464.53;5095640;28;19920;-67
2023/05/08 11:57:30;;;;;;;;;;;;;;;23.97;36.59;96457.63;5095314;28;19920;-68
2023/05/08 11:59:58;;;;;;;;;;;;;;;23.85;38.28;96462.28;5095437;28;19920;-68
2023/05/08 12:02:35;;;;;;;;;;;;;;;23.69;38.19;96462.88;5095366;28;20387;-68
2023/05/08 12:05:03;;;;;;;;;;;;;;;23.53;35.96;96460.75;5095371;28;20323;-68
2023/05/08 12:07:30;;;;;;;;;;;;;;;23.51;37.87;96452.09;5095237;28;19920;-68
2023/05/08 12:09:57;;;;;;;;;;;;;;;23.68;38.38;96456.69;5095079;28;20015;-68
2023/05/08 12:12:24;;;;;;;;;;;;;;;23.89;37.73;96450.31;5095279;28;20360;-68
2023/05/08 12:14:51;;;;;;;;;;;;;;;23.91;37.58;96448.34;5095177;28;19924;-68
2023/05/08 12:17:20;;;;;;;;;;;;;;;23.98;38.96;96452.13;5095064;28;20400;-68
2023/05/08 12:19:46;;;;;;;;;;;;;;;23.88;37.33;96448.63;5095005;28;19920;-68
2023/05/08 12:22:13;;;;;;;;;;;;;;;23.39;37.17;96459.38;5095044;28;20263;-69
2023/05/08 12:24:41;;;;;;;;;;;;;;;23.17;39.20;96455.97;5094835;28;19973;-68
2023/05/08 12:27:07;;;;;;;;;;;;;;;23.26;39.09;96455.13;5095005;28;20013;-68
2023/05/08 12:29:35;;;;;;;;;;;;;;;23.19;38.82;96454.88;5094928;28;19920;-69
2023/05/08 12:32:06;;;;;;;;;;;;;;;23.19;40.72;96438.88;5094927;28;19989;-68
2023/05/08 12:34:39;;;;;;;;;;;;;;;22.95;39.83;96452.59;5094750;28;20421;-68
2023/05/08 12:37:06;;;;;;;;;;;;;;;22.88;38.64;96444.31;5093805;28;20015;-68
2023/05/08 12:39:49;;;;;;;;;;;;;;;22.88;38.31;96457.66;5094679;28;19953;-68
2023/05/08 12:42:24;;;;;;;;;;;;;;;22.87;39.89;96447.94;5093211;28;20293;-68
2023/05/08 12:44:56;;;;;;;;;;;;;;;22.83;40.63;96450.06;5094433;28;19920;-69
2023/05/08 12:47:27;;;;;;;;;;;;;;;22.82;39.60;96452.88;5094064;28;19967;-68
2023/05/08 12:50:08;;;;;;;;;;;;;;;22.90;40.12;96460.19;5094192;28;20292;-68
2023/05/08 12:52:36;;;;;;;;;;;;;;;22.96;39.70;96456.94;5094433;28;19920;-68
2023/05/08 12:55:06;;;;;;;;;;;;;;;22.99;39.97;96467.34;5094248;28;19924;-68
2023/05/08 12:57:35;;;;;;;;;;;;;;;22.80;38.63;96462.81;5094295;28;20353;-68
2023/05/08 13:00:06;;;;;;;;;;;;;;;22.68;38.17;96470.94;5094171;28;19920;-68